createdAt,value
2022-12-14T00:02:59.612Z,8.90
2022-12-14T00:06:09.813Z,9.23
2022-12-14T00:09:11.538Z,9.37
2022-12-14T00:12:12.925Z,9.67
2022-12-14T00:15:14.420Z,11.73
2022-12-14T00:18:19.403Z,7.43
2022-12-14T00:21:24.500Z,8.03
2022-12-14T00:24:25.884Z,9.23
2022-12-14T00:27:27.704Z,8.77
2022-12-14T00:30:29.118Z,8.27
2022-12-14T00:33:30.591Z,8.27
2022-12-14T00:36:32.217Z,9.97
2022-12-14T00:39:33.728Z,8.20
2022-12-14T00:42:35.720Z,7.47
2022-12-14T00:45:37.145Z,8.20
2022-12-14T00:48:38.544Z,8.53
2022-12-14T00:51:39.920Z,8.10
2022-12-14T00:54:42.149Z,9.87
2022-12-14T00:57:43.555Z,9.63
2022-12-14T01:00:45.367Z,8.17
2022-12-14T01:03:47.170Z,8.53
2022-12-14T01:06:50.566Z,8.73
2022-12-14T01:09:52.059Z,9.47
2022-12-14T01:12:53.461Z,9.90
2022-12-14T01:15:54.864Z,9.67
2022-12-14T01:18:56.428Z,9.37
2022-12-14T01:21:59.797Z,16.07
2022-12-14T01:25:01.202Z,9.70
2022-12-14T01:28:02.688Z,12.27
2022-12-14T01:31:09.382Z,9.13
2022-12-14T01:34:11.075Z,10.50
2022-12-14T01:37:12.493Z,8.77
2022-12-14T01:40:13.949Z,8.37
2022-12-14T01:43:15.389Z,9.63
2022-12-14T01:46:22.312Z,9.50
2022-12-14T01:49:28.950Z,9.30
2022-12-14T01:52:39.835Z,8.37
2022-12-14T01:55:49.106Z,9.40
2022-12-14T01:58:50.716Z,9.23
2022-12-14T02:01:53.817Z,10.30
2022-12-14T02:05:00.954Z,9.60
2022-12-14T02:08:04.899Z,10.40
2022-12-14T02:11:06.788Z,10.27
2022-12-14T02:14:09.365Z,8.47
2022-12-14T02:17:13.588Z,10.43
2022-12-14T02:20:16.487Z,12.13
2022-12-14T02:23:42.650Z,8.70
2022-12-14T02:27:15.083Z,9.77
2022-12-14T02:30:20.631Z,10.03
2022-12-14T02:33:44.008Z,12.90
2022-12-14T02:37:00.201Z,10.07
2022-12-14T02:40:20.792Z,11.63
2022-12-14T02:43:48.712Z,9.87
2022-12-14T02:46:56.098Z,11.27
2022-12-14T02:50:24.334Z,10.77
2022-12-14T02:53:42.244Z,10.80
2022-12-14T02:56:50.331Z,10.17
2022-12-14T02:59:56.384Z,10.57
2022-12-14T03:02:59.276Z,12.40
2022-12-14T03:06:03.715Z,11.50
2022-12-14T03:09:05.084Z,11.50
2022-12-14T03:12:13.223Z,11.43
2022-12-14T03:15:18.832Z,12.13
2022-12-14T03:18:24.931Z,11.33
2022-12-14T03:21:33.776Z,10.80
2022-12-14T03:24:42.914Z,11.43
2022-12-14T03:27:51.398Z,11.20
2022-12-14T03:31:02.447Z,13.00
2022-12-14T03:34:13.254Z,11.03
2022-12-14T03:37:22.721Z,13.27
2022-12-14T03:40:33.731Z,12.23
2022-12-14T03:43:49.729Z,12.17
2022-12-14T03:47:09.972Z,12.40
2022-12-14T03:50:20.032Z,14.13
2022-12-14T03:53:42.374Z,12.60
2022-12-14T03:56:53.513Z,12.80
2022-12-14T04:00:03.655Z,13.57
2022-12-14T04:03:36.226Z,15.03
2022-12-14T04:07:10.089Z,13.03
2022-12-14T04:10:53.480Z,13.47
2022-12-14T04:14:19.666Z,14.13
2022-12-14T04:17:46.272Z,12.53
2022-12-14T04:20:53.230Z,12.17
2022-12-14T04:24:25.524Z,13.07
2022-12-14T04:27:37.989Z,14.80
2022-12-14T04:30:40.717Z,13.53
2022-12-14T04:33:49.858Z,14.23
2022-12-14T04:37:04.872Z,15.30
2022-12-14T04:40:11.977Z,13.07
2022-12-14T04:43:19.431Z,14.80
2022-12-14T04:46:26.546Z,12.10
2022-12-14T04:49:43.719Z,16.83
2022-12-14T04:52:57.688Z,13.23
2022-12-14T04:56:20.218Z,14.53
2022-12-14T04:59:22.475Z,16.07
2022-12-14T05:03:07.880Z,15.53
2022-12-14T05:06:13.900Z,14.30
2022-12-14T05:09:32.690Z,15.20
2022-12-14T05:12:46.712Z,15.40
2022-12-14T05:15:54.063Z,15.60
2022-12-14T05:18:55.503Z,16.90
2022-12-14T05:21:57.087Z,14.53
2022-12-14T05:24:58.537Z,14.63
2022-12-14T05:28:00.055Z,14.77
2022-12-14T05:31:01.557Z,15.57
2022-12-14T05:34:03.084Z,16.13
2022-12-14T05:37:04.714Z,15.33
2022-12-14T05:40:06.986Z,16.50
2022-12-14T05:43:11.520Z,18.93
2022-12-14T05:46:14.323Z,17.50
2022-12-14T05:49:16.322Z,15.93
2022-12-14T05:52:18.926Z,19.60
2022-12-14T05:55:20.356Z,17.37
2022-12-14T05:58:22.001Z,16.67
2022-12-14T06:01:23.471Z,16.10
2022-12-14T06:04:25.358Z,15.63
2022-12-14T06:07:28.482Z,16.90
2022-12-14T06:10:30.033Z,16.70
2022-12-14T06:13:33.284Z,18.43
2022-12-14T06:16:36.200Z,17.83
2022-12-14T06:19:37.619Z,18.20
2022-12-14T06:22:47.239Z,17.57
2022-12-14T06:25:54.371Z,18.97
2022-12-14T06:28:57.091Z,15.80
2022-12-14T06:31:58.471Z,18.00
2022-12-14T06:35:00.276Z,18.30
2022-12-14T06:38:01.674Z,16.57
2022-12-14T06:41:08.109Z,16.33
2022-12-14T06:44:14.073Z,18.77
2022-12-14T06:47:15.725Z,16.17
2022-12-14T06:50:17.132Z,22.63
2022-12-14T06:53:19.323Z,15.50
2022-12-14T06:56:22.106Z,16.07
2022-12-14T06:59:23.501Z,18.23
2022-12-14T07:02:25.416Z,18.20
2022-12-14T07:05:27.289Z,17.70
2022-12-14T07:08:31.149Z,18.83
2022-12-14T07:11:33.303Z,22.07
2022-12-14T07:14:34.883Z,22.67
2022-12-14T07:17:37.395Z,19.47
2022-12-14T07:20:38.795Z,21.57
2022-12-14T07:23:41.994Z,20.53
2022-12-14T07:26:43.483Z,23.00
2022-12-14T07:29:45.181Z,17.17
2022-12-14T07:32:46.765Z,20.70
2022-12-14T07:35:48.193Z,20.60
2022-12-14T07:38:50.800Z,18.87
2022-12-14T07:41:54.467Z,22.70
2022-12-14T07:44:55.877Z,20.17
2022-12-14T07:47:57.523Z,20.50
2022-12-14T07:51:10.669Z,20.13
2022-12-14T07:54:12.995Z,20.47
2022-12-14T07:57:14.497Z,22.83
2022-12-14T08:00:16.897Z,25.13
2022-12-14T08:03:18.333Z,21.07
2022-12-14T08:06:21.288Z,19.83
2022-12-14T08:09:22.760Z,19.50
2022-12-14T08:12:24.147Z,21.17
2022-12-14T08:15:25.602Z,20.93
2022-12-14T08:18:27.109Z,22.33
2022-12-14T08:21:29.424Z,21.63
2022-12-14T08:24:30.834Z,21.97
2022-12-14T08:27:32.265Z,21.10
2022-12-14T08:30:38.843Z,21.83
2022-12-14T08:33:41.476Z,22.33
2022-12-14T08:36:42.864Z,25.13
2022-12-14T08:39:44.236Z,23.07
2022-12-14T08:42:50.884Z,23.20
2022-12-14T08:45:54.730Z,22.60
2022-12-14T08:48:57.853Z,23.93
2022-12-14T08:51:59.556Z,23.13
2022-12-14T08:55:00.973Z,21.20
2022-12-14T08:58:02.404Z,23.57
2022-12-14T09:01:09.745Z,25.20
2022-12-14T09:04:11.282Z,22.63
2022-12-14T09:07:12.683Z,24.00
2022-12-14T09:10:14.257Z,22.73
2022-12-14T09:13:15.677Z,23.90
2022-12-14T09:16:19.235Z,22.20
2022-12-14T09:19:20.706Z,23.80
2022-12-14T09:22:22.123Z,22.70
2022-12-14T09:25:23.672Z,23.70
2022-12-14T09:28:25.416Z,25.73
2022-12-14T09:31:27.964Z,24.03
2022-12-14T09:34:29.550Z,20.43
2022-12-14T09:37:31.006Z,23.67
2022-12-14T09:40:33.803Z,24.00
2022-12-14T09:43:42.158Z,24.43
2022-12-14T09:47:08.138Z,24.27
2022-12-14T09:50:15.890Z,23.23
2022-12-14T09:53:20.020Z,22.33
2022-12-14T09:56:21.459Z,23.17
2022-12-14T09:59:26.511Z,25.13
2022-12-14T10:02:43.112Z,21.90
2022-12-14T10:06:17.743Z,26.83
2022-12-14T10:09:42.986Z,26.70
2022-12-14T10:13:23.450Z,28.67
2022-12-14T10:16:51.575Z,28.20
2022-12-14T10:20:00.118Z,25.60
2022-12-14T10:23:02.476Z,23.97
2022-12-14T10:26:08.812Z,23.27
2022-12-14T10:29:25.640Z,23.90
2022-12-14T10:32:39.260Z,24.80
2022-12-14T10:35:49.991Z,21.80
2022-12-14T10:39:00.104Z,25.67
2022-12-14T10:42:05.237Z,23.77
2022-12-14T10:45:43.076Z,25.63
2022-12-14T10:49:23.536Z,30.37
2022-12-14T10:52:31.327Z,23.90
2022-12-14T10:55:37.892Z,23.77
2022-12-14T10:58:39.377Z,21.57
2022-12-14T11:01:40.954Z,26.33
2022-12-14T11:04:56.258Z,27.20
2022-12-14T11:07:57.697Z,28.20
2022-12-14T11:11:18.854Z,25.17
2022-12-14T11:14:23.290Z,25.93
2022-12-14T11:17:33.900Z,26.07
2022-12-14T11:20:35.501Z,28.70
2022-12-14T11:23:41.971Z,28.83
2022-12-14T11:26:43.876Z,27.03
2022-12-14T11:29:49.214Z,31.17
2022-12-14T11:32:51.523Z,26.30
2022-12-14T11:35:53.262Z,29.57
2022-12-14T11:39:00.305Z,25.97
2022-12-14T11:42:04.444Z,27.63
2022-12-14T11:45:28.524Z,26.70
2022-12-14T11:48:30.941Z,28.43
2022-12-14T11:51:32.753Z,28.17
2022-12-14T11:54:39.307Z,27.20
2022-12-14T11:57:59.379Z,24.57
2022-12-14T12:01:06.173Z,27.23
2022-12-14T12:04:14.656Z,27.50
2022-12-14T12:07:28.624Z,26.20
2022-12-14T12:10:40.639Z,29.17
2022-12-14T12:13:48.196Z,28.30
2022-12-14T12:16:49.849Z,27.37
2022-12-14T12:19:52.221Z,30.03
2022-12-14T12:22:58.998Z,27.60
2022-12-14T12:26:08.165Z,26.03
2022-12-14T12:29:19.623Z,30.07
2022-12-14T12:32:43.751Z,27.73
2022-12-14T12:35:54.822Z,25.43
2022-12-14T12:39:04.132Z,25.13
2022-12-14T12:42:22.888Z,28.63
2022-12-14T12:45:37.417Z,25.37
2022-12-14T12:48:52.570Z,26.17
2022-12-14T12:52:06.452Z,25.10
2022-12-14T12:55:15.629Z,24.50
2022-12-14T12:58:27.302Z,27.70
2022-12-14T13:01:51.178Z,25.57
2022-12-14T13:04:54.242Z,27.03
2022-12-14T13:08:01.952Z,28.23
2022-12-14T13:11:29.288Z,29.43
2022-12-14T13:14:38.060Z,29.70
2022-12-14T13:17:49.411Z,27.57
2022-12-14T13:20:52.489Z,26.30
2022-12-14T13:23:55.788Z,27.60
2022-12-14T13:27:30.440Z,31.10
2022-12-14T13:30:53.273Z,26.67
2022-12-14T13:34:11.786Z,27.90
2022-12-14T13:37:35.167Z,29.13
2022-12-14T13:41:05.517Z,33.40
2022-12-14T13:44:37.444Z,27.33
2022-12-14T13:47:50.471Z,26.30
2022-12-14T13:51:02.722Z,28.93
2022-12-14T13:54:07.854Z,27.97
2022-12-14T13:57:20.471Z,29.87
2022-12-14T14:00:49.572Z,29.13
2022-12-14T14:04:18.328Z,28.87
2022-12-14T14:07:22.885Z,29.67
2022-12-14T14:10:35.322Z,28.83
2022-12-14T14:13:37.357Z,29.30
2022-12-14T14:16:44.200Z,34.70
2022-12-14T14:19:49.391Z,34.03
2022-12-14T14:23:16.142Z,30.27
2022-12-14T14:26:36.522Z,32.47
2022-12-14T14:29:46.110Z,34.10
2022-12-14T14:32:47.565Z,33.40
2022-12-14T14:35:49.860Z,28.77
2022-12-14T14:38:52.598Z,30.80
2022-12-14T14:41:54.359Z,33.37
2022-12-14T14:45:00.132Z,31.80
2022-12-14T14:48:21.996Z,29.17
2022-12-14T14:51:30.085Z,31.53
2022-12-14T14:55:15.825Z,29.37
2022-12-14T14:58:01.208Z,33.47
2022-12-14T15:01:06.147Z,37.67
2022-12-14T15:04:21.561Z,34.30
2022-12-14T15:07:29.708Z,33.83
2022-12-14T15:10:36.741Z,51.80
2022-12-14T15:13:57.358Z,34.50
2022-12-14T15:17:10.760Z,37.17
2022-12-14T15:20:42.049Z,35.60
2022-12-14T15:23:49.581Z,37.40
2022-12-14T15:26:52.356Z,35.97
2022-12-14T15:30:04.955Z,33.90
2022-12-14T15:33:22.702Z,33.13
2022-12-14T15:36:29.359Z,36.40
2022-12-14T15:39:39.700Z,29.70
2022-12-14T15:42:47.947Z,31.23
2022-12-14T15:45:53.181Z,32.10
2022-12-14T15:48:57.295Z,33.80
2022-12-14T15:51:59.256Z,32.37
2022-12-14T15:55:00.908Z,32.57
2022-12-14T15:58:15.869Z,32.87
2022-12-14T16:01:40.278Z,30.77
2022-12-14T16:04:43.045Z,36.03
2022-12-14T16:07:48.955Z,32.90
2022-12-14T16:10:53.488Z,30.17
2022-12-14T16:13:56.759Z,32.57
2022-12-14T16:16:59.279Z,29.50
2022-12-14T16:20:08.922Z,49.30
2022-12-14T16:23:13.410Z,29.63
2022-12-14T16:26:14.785Z,30.07
2022-12-14T16:29:23.003Z,29.50
2022-12-14T16:32:24.496Z,33.30
2022-12-14T16:35:26.690Z,29.33
2022-12-14T16:38:28.730Z,28.73
2022-12-14T16:41:58.399Z,30.93
2022-12-14T16:45:00.194Z,26.90
2022-12-14T16:48:14.711Z,26.13
2022-12-14T16:51:32.686Z,28.53
2022-12-14T16:54:40.829Z,30.77
2022-12-14T16:57:53.557Z,33.67
2022-12-14T17:00:59.458Z,30.97
2022-12-14T17:04:05.015Z,29.67
2022-12-14T17:07:06.963Z,29.73
2022-12-14T17:10:31.256Z,28.60
2022-12-14T17:13:33.220Z,28.50
2022-12-14T17:16:35.463Z,28.13
2022-12-14T17:19:39.327Z,29.23
2022-12-14T17:22:43.103Z,26.33
2022-12-14T17:25:50.962Z,26.67
2022-12-14T17:28:53.039Z,26.50
2022-12-14T17:31:57.715Z,27.30
2022-12-14T17:34:59.443Z,27.13
2022-12-14T17:38:01.026Z,25.30
2022-12-14T17:41:02.521Z,29.00
2022-12-14T17:44:04.241Z,24.33
2022-12-14T17:47:05.894Z,25.67
2022-12-14T17:50:07.768Z,26.67
2022-12-14T17:53:17.965Z,22.23
2022-12-14T17:56:20.253Z,26.50
2022-12-14T17:59:21.956Z,23.93
2022-12-14T18:02:32.826Z,23.10
2022-12-14T18:05:34.464Z,25.10
2022-12-14T18:08:35.863Z,26.37
2022-12-14T18:11:41.956Z,26.07
2022-12-14T18:14:50.752Z,25.17
2022-12-14T18:17:53.838Z,24.70
2022-12-14T18:20:58.962Z,23.40
2022-12-14T18:24:00.580Z,23.33
2022-12-14T18:27:01.999Z,24.27
2022-12-14T18:30:04.056Z,25.93
2022-12-14T18:33:05.919Z,23.10
2022-12-14T18:36:11.397Z,24.70
2022-12-14T18:39:12.880Z,21.43
2022-12-14T18:42:17.908Z,22.33
2022-12-14T18:45:25.963Z,22.13
2022-12-14T18:48:27.503Z,22.53
2022-12-14T18:51:28.956Z,20.80
2022-12-14T18:54:30.349Z,23.50
2022-12-14T18:57:31.744Z,21.90
2022-12-14T19:00:35.934Z,27.77
2022-12-14T19:03:37.632Z,26.27
2022-12-14T19:06:46.382Z,25.20
2022-12-14T19:09:47.869Z,24.00
2022-12-14T19:12:50.225Z,24.77
2022-12-14T19:15:51.719Z,25.90
2022-12-14T19:18:53.459Z,22.93
2022-12-14T19:21:55.433Z,21.93
2022-12-14T19:24:56.816Z,23.83
2022-12-14T19:28:30.361Z,27.37
2022-12-14T19:31:19.797Z,21.03
2022-12-14T19:34:21.412Z,23.07
2022-12-14T19:37:22.989Z,21.23
2022-12-14T19:40:24.710Z,21.43
2022-12-14T19:43:26.514Z,25.93
2022-12-14T19:46:28.074Z,24.17
2022-12-14T19:49:29.497Z,22.43
2022-12-14T19:52:31.433Z,23.60
2022-12-14T19:55:34.517Z,24.97
2022-12-14T19:58:36.061Z,24.23
2022-12-14T20:01:40.701Z,24.17
2022-12-14T20:04:44.870Z,26.93
2022-12-14T20:07:46.251Z,19.47
2022-12-14T20:10:48.734Z,22.97
2022-12-14T20:13:56.564Z,22.80
2022-12-14T20:16:59.502Z,41.00
2022-12-14T20:20:00.978Z,49.67
2022-12-14T20:23:02.385Z,45.23
2022-12-14T20:26:06.703Z,28.37
2022-12-14T20:29:08.235Z,31.97
2022-12-14T20:32:09.725Z,29.17
2022-12-14T20:35:16.595Z,30.27
2022-12-14T20:38:22.670Z,21.63
2022-12-14T20:41:25.210Z,21.33
2022-12-14T20:44:26.797Z,22.13
2022-12-14T20:47:28.272Z,21.73
2022-12-14T20:50:29.666Z,23.10
2022-12-14T20:53:31.544Z,23.90
2022-12-14T20:56:35.122Z,25.63
2022-12-14T20:59:36.502Z,23.33
2022-12-14T21:02:38.043Z,23.27
2022-12-14T21:05:43.134Z,23.87
2022-12-14T21:09:03.360Z,22.10
2022-12-14T21:12:23.263Z,21.30
2022-12-14T21:15:24.903Z,24.40
2022-12-14T21:18:26.565Z,21.07
2022-12-14T21:21:28.144Z,23.37
2022-12-14T21:25:02.465Z,21.73
2022-12-14T21:27:50.921Z,23.10
2022-12-14T21:30:52.313Z,24.53
2022-12-14T21:33:54.862Z,21.63
2022-12-14T21:36:56.355Z,21.43
2022-12-14T21:39:57.754Z,23.17
2022-12-14T21:42:59.165Z,22.10
2022-12-14T21:46:00.604Z,23.73
2022-12-14T21:49:02.459Z,22.53
2022-12-14T21:52:07.295Z,22.43
2022-12-14T21:55:09.149Z,21.97
2022-12-14T21:58:16.600Z,22.57
2022-12-14T22:01:18.227Z,29.77
2022-12-14T22:04:20.712Z,25.13
2022-12-14T22:07:24.980Z,23.13
2022-12-14T22:10:26.485Z,22.20
2022-12-14T22:13:28.150Z,25.30
2022-12-14T22:16:31.819Z,21.37
2022-12-14T22:19:33.661Z,20.70
2022-12-14T22:22:35.211Z,23.97
2022-12-14T22:25:36.614Z,20.33
2022-12-14T22:28:37.986Z,19.80
2022-12-14T22:31:39.592Z,24.23
2022-12-14T22:34:41.120Z,19.67
2022-12-14T22:37:42.528Z,23.67
2022-12-14T22:40:43.939Z,21.33
2022-12-14T22:43:45.683Z,21.47
2022-12-14T22:46:47.410Z,21.13
2022-12-14T22:49:48.866Z,20.63
2022-12-14T22:52:50.256Z,18.50
2022-12-14T22:55:52.698Z,19.90
2022-12-14T22:59:09.020Z,23.17
2022-12-14T23:02:10.887Z,22.83
2022-12-14T23:05:12.981Z,20.77
2022-12-14T23:08:14.476Z,21.23
2022-12-14T23:11:34.571Z,22.33
2022-12-14T23:14:54.604Z,21.80
2022-12-14T23:18:23.069Z,21.93
2022-12-14T23:21:42.887Z,22.23
2022-12-14T23:25:03.148Z,22.50
2022-12-14T23:28:23.737Z,23.93
2022-12-14T23:31:43.849Z,25.40
2022-12-14T23:35:03.655Z,24.50
2022-12-14T23:38:24.521Z,26.33
2022-12-14T23:41:44.773Z,23.97
2022-12-14T23:45:04.523Z,23.77
2022-12-14T23:48:24.951Z,22.63
2022-12-14T23:51:45.939Z,20.30
2022-12-14T23:55:05.715Z,21.30
2022-12-14T23:58:25.533Z,22.17
